Dahli Brooke — WDH3184 — position and weather

sailwx.info

Track history (hours):
 
Tides and Currents Weather Stations Pressure Air Temp Water Temp Dewpoint Dewpoint Depression Visibility Wind Speed Wind Dir Waves Ship Positions

Dahli Brooke

Owner: Dahli Brooke, LLC., Sulphur, LA. More information available from US FCC via Universal Licensing System and Coast Guard Vessel Documentation Center.

Last reported at 2018-Jan-19 03:26 UTC. Time now 2018-Jan-20 13:24 UTC.
Position N 29°46' W 095°06'.

Length 25 m.

Type: Fishing. MMSI: 367605130.

Date/timePositionNaut miles runAvg speedWind from/ knotsBaromVisibWave heightAir tempDewpointWater temp
2018-Jan-19 03:26N 29°46' W 095°06'  
2018-Jan-12 13:41N 29°31' W 094°53'1 7.9
2018-Jan-12 13:30N 29°32' W 094°54'4 7.1
2018-Jan-12 13:00N 29°35' W 094°56'4 7.1
2018-Jan-12 12:30N 29°38' W 094°58'4 8.1
2018-Jan-12 12:00N 29°42' W 094°60'7 4.8
2018-Jan-12 10:31N 29°46' W 095°06'0 0.1
2018-Jan-12 10:25N 29°46' W 095°06'0 0.1
2018-Jan-12 09:51N 29°46' W 095°06'0 1.0
2018-Jan-12 09:24N 29°46' W 095°06'2 4.8
2018-Jan-12 08:54N 29°44' W 095°03'2 3.2
2018-Jan-12 08:08N 29°43' W 095°01'1 4.4
2018-Jan-12 08:00N 29°42' W 095°01'2 4.0
2018-Jan-12 07:30N 29°41' W 094°59'2 4.2
2018-Jan-12 07:00N 29°39' W 094°58'2 5.0
2018-Jan-12 06:30N 29°37' W 094°57'3 5.5
2018-Jan-12 06:00N 29°35' W 094°56'3 5.0
2018-Jan-12 05:30N 29°33' W 094°54'4 0.6
2018-Jan-11 23:28N 29°30' W 094°52'4 8.0
2018-Jan-11 23:00N 29°33' W 094°54'4 8.0
2018-Jan-11 22:30N 29°36' W 094°57'4 8.0
2018-Jan-11 22:00N 29°40' W 094°58'4 7.3
2018-Jan-11 21:30N 29°43' W 095°01'5 5.6
2018-Jan-11 20:36N 29°44' W 095°07'1 8.1
2018-Jan-11 20:26N 29°44' W 095°08'5 0.2
2018-Jan-10 20:27N 29°44' W 095°14'3 6.0
2018-Jan-10 19:59N 29°45' W 095°11'4 6.4
2018-Jan-10 19:26N 29°44' W 095°07'3 4.6
2018-Jan-10 18:42N 29°44' W 095°03'1 6.9
2018-Jan-10 18:30N 29°44' W 095°01'2 0.6
2018-Jan-10 15:32N 29°44' W 095°04'3 1.4
2018-Jan-10 13:30N 29°46' W 095°06'0 0.0
2018-Jan-10 13:00N 29°46' W 095°06'1 0.7
2018-Jan-10 12:14N 29°46' W 095°06'2 6.0
2018-Jan-10 11:50N 29°44' W 095°03'2 0.9
2018-Jan-10 09:10N 29°43' W 095°01'1 6.4
2018-Jan-10 09:00N 29°42' W 095°01'4 7.0
2018-Jan-10 08:29N 29°39' W 094°58'4 7.8
2018-Jan-10 08:00N 29°36' W 094°57'4 7.4
2018-Jan-10 07:30N 29°33' W 094°54'3 0.4
2018-Jan-10 00:06N 29°30' W 094°52'1 7.0
2018-Jan-09 23:58N 29°31' W 094°53'3 6.6
2018-Jan-09 23:30N 29°33' W 094°55'3 6.8
2018-Jan-09 23:00N 29°36' W 094°57'4 6.9
2018-Jan-09 22:29N 29°40' W 094°58'8 3.6
2018-Jan-09 20:09N 29°46' W 095°05'2 6.9
2018-Jan-09 19:52N 29°44' W 095°03'2 4.3
2018-Jan-09 19:25N 29°44' W 095°01'0 0.0
2018-Jan-09 18:59N 29°44' W 095°01'0 0.0
2018-Jan-09 18:28N 29°44' W 095°01'0 0.0
2018-Jan-09 17:59N 29°44' W 095°01'0 0.0
2018-Jan-09 17:30N 29°44' W 095°01'0 0.0
2018-Jan-09 17:00N 29°44' W 095°01'0 0.0
2018-Jan-09 16:28N 29°44' W 095°01'0 0.0
2018-Jan-09 15:59N 29°44' W 095°01'0 0.0
2018-Jan-09 15:30N 29°44' W 095°01'0 0.0
2018-Jan-09 15:00N 29°44' W 095°01'0 0.0
2018-Jan-09 14:30N 29°44' W 095°01'0 0.0
2018-Jan-09 13:58N 29°44' W 095°01'0 0.0
2018-Jan-09 13:27N 29°44' W 095°01'0 0.0
2018-Jan-09 13:00N 29°44' W 095°01'0 0.0
2018-Jan-09 12:30N 29°44' W 095°01'  
Track history (hours):
 
Tides and Currents Weather Stations Pressure Air Temp Water Temp Dewpoint Dewpoint Depression Visibility Wind Speed Wind Dir Waves Ship Positions

Dahli Brooke

Owner: Dahli Brooke, LLC., Sulphur, LA. More information available from US FCC via Universal Licensing System and Coast Guard Vessel Documentation Center.

Last reported at 2018-Jan-19 03:26 UTC. Time now 2018-Jan-20 13:24 UTC.
Position N 29°46' W 095°06'.

Length 25 m.

Type: Fishing. MMSI: 367605130.

Date/timePositionNaut miles runAvg speedWind from/ knotsBaromVisibWave heightAir tempDewpointWater temp
2018-Jan-19 03:26N 29°46' W 095°06'  
2018-Jan-12 13:41N 29°31' W 094°53'1 7.9
2018-Jan-12 13:30N 29°32' W 094°54'4 7.1
2018-Jan-12 13:00N 29°35' W 094°56'4 7.1
2018-Jan-12 12:30N 29°38' W 094°58'4 8.1
2018-Jan-12 12:00N 29°42' W 094°60'7 4.8
2018-Jan-12 10:31N 29°46' W 095°06'0 0.1
2018-Jan-12 10:25N 29°46' W 095°06'0 0.1
2018-Jan-12 09:51N 29°46' W 095°06'0 1.0
2018-Jan-12 09:24N 29°46' W 095°06'2 4.8
2018-Jan-12 08:54N 29°44' W 095°03'2 3.2
2018-Jan-12 08:08N 29°43' W 095°01'1 4.4
2018-Jan-12 08:00N 29°42' W 095°01'2 4.0
2018-Jan-12 07:30N 29°41' W 094°59'2 4.2
2018-Jan-12 07:00N 29°39' W 094°58'2 5.0
2018-Jan-12 06:30N 29°37' W 094°57'3 5.5
2018-Jan-12 06:00N 29°35' W 094°56'3 5.0
2018-Jan-12 05:30N 29°33' W 094°54'4 0.6
2018-Jan-11 23:28N 29°30' W 094°52'4 8.0
2018-Jan-11 23:00N 29°33' W 094°54'4 8.0
2018-Jan-11 22:30N 29°36' W 094°57'4 8.0
2018-Jan-11 22:00N 29°40' W 094°58'4 7.3
2018-Jan-11 21:30N 29°43' W 095°01'5 5.6
2018-Jan-11 20:36N 29°44' W 095°07'1 8.1
2018-Jan-11 20:26N 29°44' W 095°08'5 0.2
2018-Jan-10 20:27N 29°44' W 095°14'3 6.0
2018-Jan-10 19:59N 29°45' W 095°11'4 6.4
2018-Jan-10 19:26N 29°44' W 095°07'3 4.6
2018-Jan-10 18:42N 29°44' W 095°03'1 6.9
2018-Jan-10 18:30N 29°44' W 095°01'2 0.6
2018-Jan-10 15:32N 29°44' W 095°04'3 1.4
2018-Jan-10 13:30N 29°46' W 095°06'0 0.0
2018-Jan-10 13:00N 29°46' W 095°06'1 0.7
2018-Jan-10 12:14N 29°46' W 095°06'2 6.0
2018-Jan-10 11:50N 29°44' W 095°03'2 0.9
2018-Jan-10 09:10N 29°43' W 095°01'1 6.4
2018-Jan-10 09:00N 29°42' W 095°01'4 7.0
2018-Jan-10 08:29N 29°39' W 094°58'4 7.8
2018-Jan-10 08:00N 29°36' W 094°57'4 7.4
2018-Jan-10 07:30N 29°33' W 094°54'3 0.4
2018-Jan-10 00:06N 29°30' W 094°52'1 7.0
2018-Jan-09 23:58N 29°31' W 094°53'3 6.6
2018-Jan-09 23:30N 29°33' W 094°55'3 6.8
2018-Jan-09 23:00N 29°36' W 094°57'4 6.9
2018-Jan-09 22:29N 29°40' W 094°58'8 3.6
2018-Jan-09 20:09N 29°46' W 095°05'2 6.9
2018-Jan-09 19:52N 29°44' W 095°03'2 4.3
2018-Jan-09 19:25N 29°44' W 095°01'0 0.0
2018-Jan-09 18:59N 29°44' W 095°01'0 0.0
2018-Jan-09 18:28N 29°44' W 095°01'0 0.0
2018-Jan-09 17:59N 29°44' W 095°01'0 0.0
2018-Jan-09 17:30N 29°44' W 095°01'0 0.0
2018-Jan-09 17:00N 29°44' W 095°01'0 0.0
2018-Jan-09 16:28N 29°44' W 095°01'0 0.0
2018-Jan-09 15:59N 29°44' W 095°01'0 0.0
2018-Jan-09 15:30N 29°44' W 095°01'0 0.0
2018-Jan-09 15:00N 29°44' W 095°01'0 0.0
2018-Jan-09 14:30N 29°44' W 095°01'0 0.0
2018-Jan-09 13:58N 29°44' W 095°01'0 0.0
2018-Jan-09 13:27N 29°44' W 095°01'0 0.0
2018-Jan-09 13:00N 29°44' W 095°01'0 0.0
2018-Jan-09 12:30N 29°44' W 095°01'  

Dump ship's entire track history